PGT1548 LTAI-LTCS
Flight info
| Callsign | PGT1548 |
|---|---|
| Flight time | N/A |
| Altitude | 35000 |
| Route | TEWHE UR55 MUT UW74 MANAZ DCT ADKAR UT470 GAZ W716 LUTAM |
| Aircraft | A20N/M-SDE2E3FGHIRWXY/LB1 |
Departure
| Time | N/A |
|---|---|
| Airport | Antalya International Airport (LTAI) |
Arrival
| Time | 2026-04-24 19:43 |
|---|---|
| Airport | Şanlıurfa GAP Airport (LTCS) |
| Time | Latitude | Longitude | Altitude | Speed | Heading |
|---|---|---|---|---|---|
| 2026-04-24 18:54 | 36.86920 | 33.10360 | 35036 ft | 467 kts | 96° |
| 2026-04-24 18:55 | 36.86521 | 33.22525 | 35029 ft | 468 kts | 96° |
| 2026-04-24 18:56 | 36.86376 | 33.30638 | 35030 ft | 471 kts | 91° |
| 2026-04-24 18:56 | 36.86744 | 33.38747 | 35034 ft | 472 kts | 89° |
| 2026-04-24 18:57 | 36.87176 | 33.46943 | 35049 ft | 472 kts | 89° |
| 2026-04-24 18:57 | 36.87584 | 33.55070 | 35055 ft | 472 kts | 89° |
| 2026-04-24 18:58 | 36.87983 | 33.63251 | 35058 ft | 473 kts | 89° |
| 2026-04-24 18:58 | 36.88373 | 33.71424 | 35062 ft | 474 kts | 90° |
| 2026-04-24 18:59 | 36.88758 | 33.79598 | 35063 ft | 473 kts | 90° |
| 2026-04-24 18:59 | 36.89138 | 33.87789 | 35062 ft | 474 kts | 90° |
| 2026-04-24 19:00 | 36.89512 | 33.96000 | 35067 ft | 475 kts | 90° |
| 2026-04-24 19:00 | 36.89881 | 34.04226 | 35067 ft | 475 kts | 90° |
| 2026-04-24 19:01 | 36.90244 | 34.12433 | 35070 ft | 475 kts | 90° |
| 2026-04-24 19:01 | 36.90603 | 34.20667 | 35070 ft | 474 kts | 90° |
| 2026-04-24 19:02 | 36.90836 | 34.27481 | 35065 ft | 473 kts | 91° |
| 2026-04-24 19:02 | 36.91078 | 34.37031 | 35055 ft | 473 kts | 91° |
| 2026-04-24 19:03 | 36.91300 | 34.45182 | 35038 ft | 472 kts | 91° |
| 2026-04-24 19:03 | 36.91525 | 34.53405 | 35019 ft | 472 kts | 91° |
| 2026-04-24 19:04 | 36.91740 | 34.61573 | 34999 ft | 473 kts | 91° |
| 2026-04-24 19:04 | 36.91950 | 34.69738 | 34984 ft | 474 kts | 92° |
| 2026-04-24 19:05 | 36.92157 | 34.77967 | 34968 ft | 474 kts | 92° |
| 2026-04-24 19:05 | 36.92357 | 34.86166 | 34961 ft | 473 kts | 92° |
| 2026-04-24 19:06 | 36.92549 | 34.94349 | 34959 ft | 472 kts | 91° |
| 2026-04-24 19:06 | 36.92737 | 35.02527 | 34959 ft | 471 kts | 91° |
| 2026-04-24 19:07 | 36.92921 | 35.10739 | 34958 ft | 472 kts | 91° |
| 2026-04-24 19:07 | 36.93067 | 35.17549 | 34958 ft | 472 kts | 91° |
| 2026-04-24 19:08 | 36.93267 | 35.27053 | 34956 ft | 471 kts | 91° |
| 2026-04-24 19:08 | 36.93433 | 35.35221 | 34957 ft | 472 kts | 91° |
| 2026-04-24 19:09 | 36.93591 | 35.43438 | 34957 ft | 472 kts | 92° |
| 2026-04-24 19:09 | 36.93744 | 35.51606 | 34957 ft | 473 kts | 91° |
| 2026-04-24 19:10 | 36.93893 | 35.59810 | 34957 ft | 473 kts | 91° |
| 2026-04-24 19:10 | 36.94038 | 35.67993 | 34954 ft | 473 kts | 92° |
| 2026-04-24 19:11 | 36.94175 | 35.76174 | 34953 ft | 474 kts | 92° |
| 2026-04-24 19:11 | 36.94308 | 35.84409 | 34950 ft | 475 kts | 92° |
| 2026-04-24 19:12 | 36.94436 | 35.92647 | 34949 ft | 474 kts | 92° |
| 2026-04-24 19:12 | 36.94554 | 36.00822 | 34949 ft | 475 kts | 92° |
| 2026-04-24 19:13 | 36.94651 | 36.07725 | 34951 ft | 474 kts | 92° |
| 2026-04-24 19:13 | 36.94778 | 36.17302 | 34957 ft | 474 kts | 92° |
| 2026-04-24 19:14 | 36.94882 | 36.25486 | 34964 ft | 474 kts | 92° |
| 2026-04-24 19:14 | 36.94981 | 36.33717 | 34971 ft | 474 kts | 92° |
| 2026-04-24 19:15 | 36.95073 | 36.41896 | 34981 ft | 474 kts | 92° |
| 2026-04-24 19:15 | 36.95157 | 36.50128 | 34998 ft | 475 kts | 92° |
| 2026-04-24 19:16 | 36.95228 | 36.62450 | 34990 ft | 475 kts | 93° |
| 2026-04-24 19:16 | 36.95268 | 36.70704 | 34684 ft | 474 kts | 93° |
| 2026-04-24 19:17 | 36.95289 | 36.74784 | 34406 ft | 472 kts | 94° |
| 2026-04-24 19:17 | 36.95306 | 36.78897 | 34131 ft | 470 kts | 93° |
| 2026-04-24 19:17 | 36.95321 | 36.82920 | 33864 ft | 468 kts | 93° |
| 2026-04-24 19:17 | 36.95335 | 36.86989 | 33595 ft | 468 kts | 93° |
| 2026-04-24 19:18 | 36.95349 | 36.91017 | 33330 ft | 468 kts | 94° |
| 2026-04-24 19:18 | 36.95364 | 36.95123 | 33059 ft | 469 kts | 93° |
| 2026-04-24 19:18 | 36.95377 | 36.99172 | 32794 ft | 470 kts | 93° |
| 2026-04-24 19:18 | 36.95388 | 37.03209 | 32530 ft | 470 kts | 93° |
| 2026-04-24 19:19 | 36.95398 | 37.07323 | 32263 ft | 471 kts | 93° |
| 2026-04-24 19:19 | 36.95408 | 37.11404 | 31997 ft | 471 kts | 93° |
| 2026-04-24 19:19 | 36.95415 | 37.15500 | 31731 ft | 472 kts | 94° |
| 2026-04-24 19:19 | 36.95400 | 37.19600 | 31465 ft | 473 kts | 94° |
| 2026-04-24 19:20 | 36.95367 | 37.23698 | 31140 ft | 474 kts | 94° |
| 2026-04-24 19:20 | 36.95329 | 37.27800 | 30716 ft | 475 kts | 94° |
| 2026-04-24 19:20 | 36.95294 | 37.31892 | 30147 ft | 476 kts | 94° |
| 2026-04-24 19:20 | 36.95258 | 37.35999 | 29653 ft | 473 kts | 94° |
| 2026-04-24 19:21 | 36.95224 | 37.40064 | 29202 ft | 469 kts | 94° |
| 2026-04-24 19:21 | 36.95231 | 37.44161 | 28736 ft | 468 kts | 89° |
| 2026-04-24 19:21 | 36.95678 | 37.48132 | 28288 ft | 467 kts | 77° |
| 2026-04-24 19:21 | 36.96685 | 37.51971 | 27857 ft | 463 kts | 67° |
| 2026-04-24 19:22 | 36.97540 | 37.54426 | 27569 ft | 461 kts | 65° |
| 2026-04-24 19:22 | 36.99327 | 37.59209 | 26999 ft | 456 kts | 64° |
| 2026-04-24 19:22 | 37.00652 | 37.62764 | 26569 ft | 452 kts | 64° |
| 2026-04-24 19:22 | 37.01944 | 37.66312 | 26142 ft | 448 kts | 65° |
| 2026-04-24 19:23 | 37.03208 | 37.69838 | 25726 ft | 445 kts | 65° |
| 2026-04-24 19:23 | 37.04458 | 37.73356 | 25297 ft | 441 kts | 65° |
| 2026-04-24 19:23 | 37.05704 | 37.76857 | 24858 ft | 438 kts | 65° |
| 2026-04-24 19:23 | 37.06947 | 37.80312 | 24414 ft | 434 kts | 65° |
| 2026-04-24 19:24 | 37.08168 | 37.83691 | 23993 ft | 431 kts | 64° |
| 2026-04-24 19:24 | 37.09407 | 37.87125 | 23545 ft | 427 kts | 65° |
| 2026-04-24 19:24 | 37.10611 | 37.90467 | 23110 ft | 424 kts | 64° |
| 2026-04-24 19:24 | 37.11819 | 37.93822 | 22672 ft | 416 kts | 64° |
| 2026-04-24 19:25 | 37.12993 | 37.97093 | 22228 ft | 413 kts | 64° |
| 2026-04-24 19:25 | 37.14164 | 38.00359 | 21783 ft | 411 kts | 65° |
| 2026-04-24 19:25 | 37.15319 | 38.03585 | 21344 ft | 408 kts | 65° |
| 2026-04-24 19:25 | 37.16476 | 38.06820 | 20897 ft | 406 kts | 65° |
| 2026-04-24 19:26 | 37.17628 | 38.10048 | 20455 ft | 404 kts | 65° |
| 2026-04-24 19:26 | 37.18767 | 38.13244 | 20015 ft | 402 kts | 65° |
| 2026-04-24 19:26 | 37.19898 | 38.16431 | 19583 ft | 399 kts | 65° |
| 2026-04-24 19:26 | 37.21017 | 38.19601 | 19130 ft | 397 kts | 65° |
| 2026-04-24 19:27 | 37.22133 | 38.22762 | 18691 ft | 395 kts | 65° |
| 2026-04-24 19:27 | 37.23225 | 38.25861 | 18258 ft | 393 kts | 66° |
| 2026-04-24 19:27 | 37.24328 | 38.28992 | 17831 ft | 390 kts | 65° |
| 2026-04-24 19:27 | 37.25418 | 38.32093 | 17401 ft | 388 kts | 65° |
| 2026-04-24 19:28 | 37.26495 | 38.35159 | 16976 ft | 385 kts | 65° |
| 2026-04-24 19:28 | 37.27569 | 38.38219 | 16548 ft | 383 kts | 65° |
| 2026-04-24 19:28 | 37.28637 | 38.41258 | 16121 ft | 381 kts | 65° |
| 2026-04-24 19:28 | 37.29698 | 38.44285 | 15695 ft | 378 kts | 65° |
| 2026-04-24 19:29 | 37.31779 | 38.50235 | 14853 ft | 363 kts | 65° |
| 2026-04-24 19:29 | 37.32788 | 38.53117 | 14445 ft | 361 kts | 65° |
| 2026-04-24 19:29 | 37.33790 | 38.55975 | 14035 ft | 359 kts | 65° |
| 2026-04-24 19:30 | 37.34790 | 38.58824 | 13626 ft | 358 kts | 65° |
| 2026-04-24 19:30 | 37.35798 | 38.61703 | 13220 ft | 356 kts | 65° |
| 2026-04-24 19:30 | 37.36786 | 38.64525 | 12820 ft | 355 kts | 65° |
| 2026-04-24 19:30 | 37.37776 | 38.67358 | 12416 ft | 352 kts | 66° |
| 2026-04-24 19:31 | 37.38749 | 38.70148 | 12021 ft | 349 kts | 66° |
| 2026-04-24 19:31 | 37.39706 | 38.72897 | 11619 ft | 346 kts | 66° |
| 2026-04-24 19:31 | 37.40667 | 38.75654 | 11214 ft | 343 kts | 66° |
| 2026-04-24 19:31 | 37.41609 | 38.78359 | 10817 ft | 331 kts | 66° |
| 2026-04-24 19:32 | 37.42495 | 38.80912 | 10646 ft | 308 kts | 66° |
| 2026-04-24 19:32 | 37.43330 | 38.83315 | 10537 ft | 287 kts | 66° |
| 2026-04-24 19:32 | 37.44125 | 38.85601 | 10428 ft | 283 kts | 66° |
| 2026-04-24 19:32 | 37.44893 | 38.87817 | 10319 ft | 271 kts | 66° |
| 2026-04-24 19:33 | 37.45687 | 38.89910 | 10220 ft | 259 kts | 57° |
| 2026-04-24 19:33 | 37.46750 | 38.91670 | 10038 ft | 251 kts | 44° |
| 2026-04-24 19:33 | 37.48004 | 38.93188 | 9762 ft | 249 kts | 39° |
| 2026-04-24 19:33 | 37.49281 | 38.94627 | 9490 ft | 244 kts | 39° |
| 2026-04-24 19:34 | 37.50524 | 38.96031 | 9234 ft | 237 kts | 39° |
| 2026-04-24 19:34 | 37.51706 | 38.97462 | 8961 ft | 238 kts | 42° |
| 2026-04-24 19:34 | 37.52890 | 38.98937 | 8501 ft | 240 kts | 43° |
| 2026-04-24 19:34 | 37.54066 | 39.00409 | 8081 ft | 240 kts | 42° |
| 2026-04-24 19:35 | 37.55181 | 39.01971 | 7649 ft | 241 kts | 55° |
| 2026-04-24 19:35 | 37.55834 | 39.03875 | 7232 ft | 238 kts | 78° |
| 2026-04-24 19:35 | 37.55983 | 39.05922 | 6833 ft | 235 kts | 89° |
| 2026-04-24 19:35 | 37.56010 | 39.07946 | 6430 ft | 230 kts | 90° |
| 2026-04-24 19:36 | 37.56016 | 39.09936 | 6006 ft | 224 kts | 90° |
| 2026-04-24 19:36 | 37.56041 | 39.11879 | 5564 ft | 220 kts | 84° |
| 2026-04-24 19:36 | 37.56576 | 39.13598 | 5120 ft | 213 kts | 49° |
| 2026-04-24 19:36 | 37.57763 | 39.14579 | 4738 ft | 198 kts | 9° |
| 2026-04-24 19:37 | 37.59009 | 39.14419 | 4638 ft | 170 kts | 326° |
| 2026-04-24 19:37 | 37.59723 | 39.13340 | 4667 ft | 160 kts | 284° |
| 2026-04-24 19:37 | 37.59599 | 39.12002 | 4670 ft | 160 kts | 242° |
| 2026-04-24 19:37 | 37.58894 | 39.10906 | 4681 ft | 162 kts | 232° |
| 2026-04-24 19:38 | 37.58317 | 39.09692 | 4671 ft | 160 kts | 248° |
| 2026-04-24 19:38 | 37.57896 | 39.08404 | 4666 ft | 160 kts | 250° |
| 2026-04-24 19:38 | 37.57490 | 39.07088 | 4662 ft | 160 kts | 250° |
| 2026-04-24 19:38 | 37.57087 | 39.05782 | 4660 ft | 160 kts | 250° |
| 2026-04-24 19:39 | 37.56680 | 39.04470 | 4660 ft | 160 kts | 250° |
| 2026-04-24 19:39 | 37.56172 | 39.03222 | 4662 ft | 161 kts | 238° |
| 2026-04-24 19:39 | 37.55481 | 39.02116 | 4664 ft | 161 kts | 231° |
| 2026-04-24 19:39 | 37.54703 | 39.01086 | 4662 ft | 162 kts | 228° |
| 2026-04-24 19:40 | 37.53890 | 39.00093 | 4653 ft | 162 kts | 226° |
| 2026-04-24 19:40 | 37.53058 | 38.99131 | 4500 ft | 162 kts | 225° |
| 2026-04-24 19:40 | 37.52228 | 38.98196 | 4288 ft | 155 kts | 225° |
| 2026-04-24 19:40 | 37.51467 | 38.97344 | 4066 ft | 141 kts | 225° |
| 2026-04-24 19:41 | 37.50736 | 38.96524 | 3889 ft | 139 kts | 225° |
| 2026-04-24 19:41 | 37.50021 | 38.95717 | 3718 ft | 139 kts | 225° |
| 2026-04-24 19:41 | 37.49304 | 38.94909 | 3544 ft | 138 kts | 225° |
| 2026-04-24 19:41 | 37.48591 | 38.94107 | 3375 ft | 138 kts | 226° |
| 2026-04-24 19:42 | 37.47885 | 38.93289 | 3208 ft | 137 kts | 226° |
| 2026-04-24 19:42 | 37.47178 | 38.92479 | 3027 ft | 137 kts | 224° |
| 2026-04-24 19:42 | 37.46452 | 38.91697 | 2846 ft | 135 kts | 226° |
| 2026-04-24 19:42 | 37.45775 | 38.90919 | 2707 ft | 129 kts | 217° |
| 2026-04-24 19:43 | 37.45167 | 38.90244 | 2697 ft | 94 kts | 222° |
| 2026-04-24 19:43 | 37.44807 | 38.89846 | 2693 ft | 45 kts | 224° |
| 2026-04-24 19:43 | 37.44667 | 38.89698 | 2696 ft | 15 kts | 188° |
| 2026-04-24 19:43 | 37.44583 | 38.89778 | 2694 ft | 16 kts | 131° |
| 2026-04-24 19:44 | 37.44501 | 38.89891 | 2691 ft | 18 kts | 133° |
| 2026-04-24 19:44 | 37.44437 | 38.89981 | 2688 ft | 12 kts | 126° |
| 2026-04-24 19:44 | 37.44454 | 38.90068 | 2685 ft | 10 kts | 41° |
| 2026-04-24 19:44 | 37.44496 | 38.90115 | 2685 ft | 7 kts | 42° |
| 2026-04-24 19:45 | 37.44540 | 38.90165 | 2684 ft | 9 kts | 41° |
| 2026-04-24 19:45 | 37.44574 | 38.90203 | 2684 ft | 5 kts | 41° |
| 2026-04-24 19:45 | 37.44597 | 38.90229 | 2684 ft | 3 kts | 59° |
| 2026-04-24 19:45 | 37.44585 | 38.90271 | 2683 ft | 6 kts | 131° |
| 2026-04-24 19:46 | 37.44560 | 38.90307 | 2682 ft | 6 kts | 131° |
| 2026-04-24 19:46 | 37.44540 | 38.90335 | 2681 ft | 3 kts | 132° |
| 2026-04-24 19:46 | 37.44536 | 38.90340 | 2681 ft | 0 kts | 131° |